Billingsville, Indiana
Current Conditions -  °F | °C
As of 9:35 AM on Saturday 25 Oct 2014 (Local Time) from KI67 Reporting Station
Broken Clouds Broken Clouds  
Wind Chill: 11°   Ceiling: 3200
Heat Index: 11°   Visibility: 10mi
Dew Point:   Wind: 5mph
Humidity: 82%   Direction: 200°SSW
Pressure: 29.99"   Gusts: NA
Location:  39.6086°N, 84.9137°W
Report Text: KI67 251335Z AUTO 20004KT 10SM BKN032 BKN065 BKN075 11/08 A2999 RMK AO1
Loading
Personal Weather Stations






























Interactive Weather Map
Tropical Storm Tracking
New forecast layout! Learn more

10-Day Weather Forecast

Advertisements
Track Severe Weather on mobile